sensor_id;sensor_type;location;lat;lon;timestamp;P1;durP1;ratioP1;P2;durP2;ratioP2
3101;SDS011;1561;42.666;23.392;2023-12-07T00:01:37;55.50;;;33.63;;
3101;SDS011;1561;42.666;23.392;2023-12-07T00:04:04;51.83;;;32.27;;
3101;SDS011;1561;42.666;23.392;2023-12-07T00:06:34;51.87;;;29.30;;
3101;SDS011;1561;42.666;23.392;2023-12-07T00:09:03;50.40;;;29.40;;
3101;SDS011;1561;42.666;23.392;2023-12-07T00:11:31;49.67;;;30.30;;
3101;SDS011;1561;42.666;23.392;2023-12-07T00:13:58;48.63;;;30.87;;
3101;SDS011;1561;42.666;23.392;2023-12-07T00:16:29;88.90;;;47.50;;
3101;SDS011;1561;42.666;23.392;2023-12-07T00:18:58;74.80;;;44.43;;
3101;SDS011;1561;42.666;23.392;2023-12-07T00:21:26;83.47;;;45.43;;
3101;SDS011;1561;42.666;23.392;2023-12-07T00:23:57;63.40;;;40.37;;
3101;SDS011;1561;42.666;23.392;2023-12-07T00:26:26;58.47;;;35.70;;
3101;SDS011;1561;42.666;23.392;2023-12-07T00:28:56;52.33;;;32.43;;
3101;SDS011;1561;42.666;23.392;2023-12-07T00:31:26;59.63;;;33.63;;
3101;SDS011;1561;42.666;23.392;2023-12-07T00:33:54;58.50;;;34.93;;
3101;SDS011;1561;42.666;23.392;2023-12-07T00:36:21;39.83;;;24.40;;
3101;SDS011;1561;42.666;23.392;2023-12-07T00:38:51;52.77;;;31.93;;
3101;SDS011;1561;42.666;23.392;2023-12-07T00:41:20;51.00;;;33.83;;
3101;SDS011;1561;42.666;23.392;2023-12-07T00:43:47;61.00;;;38.33;;
3101;SDS011;1561;42.666;23.392;2023-12-07T00:46:14;63.40;;;37.03;;
3101;SDS011;1561;42.666;23.392;2023-12-07T00:48:57;57.00;;;32.37;;
3101;SDS011;1561;42.666;23.392;2023-12-07T00:51:24;41.80;;;25.77;;
3101;SDS011;1561;42.666;23.392;2023-12-07T00:53:57;35.87;;;22.90;;
3101;SDS011;1561;42.666;23.392;2023-12-07T00:56:25;34.47;;;21.93;;
3101;SDS011;1561;42.666;23.392;2023-12-07T00:58:53;34.63;;;21.60;;
3101;SDS011;1561;42.666;23.392;2023-12-07T01:01:20;37.90;;;24.53;;
3101;SDS011;1561;42.666;23.392;2023-12-07T01:03:47;36.10;;;22.87;;
3101;SDS011;1561;42.666;23.392;2023-12-07T01:06:13;35.97;;;22.80;;
3101;SDS011;1561;42.666;23.392;2023-12-07T01:08:43;34.97;;;22.40;;
3101;SDS011;1561;42.666;23.392;2023-12-07T01:11:09;37.17;;;22.23;;
3101;SDS011;1561;42.666;23.392;2023-12-07T01:13:38;36.60;;;23.37;;
3101;SDS011;1561;42.666;23.392;2023-12-07T01:16:05;39.87;;;25.13;;
3101;SDS011;1561;42.666;23.392;2023-12-07T01:18:32;39.23;;;24.40;;
3101;SDS011;1561;42.666;23.392;2023-12-07T01:20:59;42.70;;;26.27;;
3101;SDS011;1561;42.666;23.392;2023-12-07T01:23:28;39.90;;;25.90;;
3101;SDS011;1561;42.666;23.392;2023-12-07T01:25:56;39.60;;;24.93;;
3101;SDS011;1561;42.666;23.392;2023-12-07T01:28:25;37.03;;;25.53;;
3101;SDS011;1561;42.666;23.392;2023-12-07T01:30:54;39.17;;;25.50;;
3101;SDS011;1561;42.666;23.392;2023-12-07T01:33:22;41.57;;;23.73;;
3101;SDS011;1561;42.666;23.392;2023-12-07T01:35:51;42.30;;;24.53;;
3101;SDS011;1561;42.666;23.392;2023-12-07T01:38:18;42.63;;;26.83;;
3101;SDS011;1561;42.666;23.392;2023-12-07T01:40:45;41.40;;;26.03;;
3101;SDS011;1561;42.666;23.392;2023-12-07T01:43:12;40.63;;;25.40;;
3101;SDS011;1561;42.666;23.392;2023-12-07T01:45:46;39.50;;;25.43;;
3101;SDS011;1561;42.666;23.392;2023-12-07T01:48:14;42.63;;;27.27;;
3101;SDS011;1561;42.666;23.392;2023-12-07T01:50:41;41.93;;;25.97;;
3101;SDS011;1561;42.666;23.392;2023-12-07T01:53:08;38.70;;;23.40;;
3101;SDS011;1561;42.666;23.392;2023-12-07T01:55:35;33.10;;;21.17;;
3101;SDS011;1561;42.666;23.392;2023-12-07T01:58:02;41.97;;;22.80;;
3101;SDS011;1561;42.666;23.392;2023-12-07T02:00:31;32.97;;;23.03;;
3101;SDS011;1561;42.666;23.392;2023-12-07T02:02:58;36.57;;;24.27;;
3101;SDS011;1561;42.666;23.392;2023-12-07T02:05:29;37.33;;;23.50;;
3101;SDS011;1561;42.666;23.392;2023-12-07T02:07:56;34.97;;;22.17;;
3101;SDS011;1561;42.666;23.392;2023-12-07T02:10:23;31.93;;;22.53;;
3101;SDS011;1561;42.666;23.392;2023-12-07T02:12:55;40.10;;;25.20;;
3101;SDS011;1561;42.666;23.392;2023-12-07T02:15:31;43.10;;;23.33;;
3101;SDS011;1561;42.666;23.392;2023-12-07T02:18:00;40.40;;;25.00;;
3101;SDS011;1561;42.666;23.392;2023-12-07T02:20:33;37.53;;;24.33;;
3101;SDS011;1561;42.666;23.392;2023-12-07T02:23:01;38.30;;;23.47;;
3101;SDS011;1561;42.666;23.392;2023-12-07T02:25:35;39.40;;;23.27;;
3101;SDS011;1561;42.666;23.392;2023-12-07T02:28:05;38.67;;;24.27;;
3101;SDS011;1561;42.666;23.392;2023-12-07T02:30:35;40.13;;;23.43;;
3101;SDS011;1561;42.666;23.392;2023-12-07T02:33:02;38.47;;;24.43;;
3101;SDS011;1561;42.666;23.392;2023-12-07T02:35:30;42.30;;;24.50;;
3101;SDS011;1561;42.666;23.392;2023-12-07T02:38:00;41.13;;;24.27;;
3101;SDS011;1561;42.666;23.392;2023-12-07T02:40:28;41.60;;;24.80;;
3101;SDS011;1561;42.666;23.392;2023-12-07T02:42:55;40.17;;;23.40;;
3101;SDS011;1561;42.666;23.392;2023-12-07T02:45:24;39.90;;;23.80;;
3101;SDS011;1561;42.666;23.392;2023-12-07T02:47:53;46.73;;;25.17;;
3101;SDS011;1561;42.666;23.392;2023-12-07T02:50:20;44.57;;;24.87;;
3101;SDS011;1561;42.666;23.392;2023-12-07T02:52:48;42.77;;;24.23;;
3101;SDS011;1561;42.666;23.392;2023-12-07T02:55:16;39.03;;;23.93;;
3101;SDS011;1561;42.666;23.392;2023-12-07T02:57:44;41.73;;;23.80;;
3101;SDS011;1561;42.666;23.392;2023-12-07T03:00:13;42.70;;;22.97;;
3101;SDS011;1561;42.666;23.392;2023-12-07T03:02:43;43.07;;;23.70;;
3101;SDS011;1561;42.666;23.392;2023-12-07T03:05:13;37.77;;;23.67;;
3101;SDS011;1561;42.666;23.392;2023-12-07T03:07:41;41.17;;;24.70;;
3101;SDS011;1561;42.666;23.392;2023-12-07T03:10:08;39.27;;;24.60;;
3101;SDS011;1561;42.666;23.392;2023-12-07T03:12:35;38.27;;;24.37;;
3101;SDS011;1561;42.666;23.392;2023-12-07T03:15:02;36.67;;;23.67;;
3101;SDS011;1561;42.666;23.392;2023-12-07T03:17:34;41.73;;;24.50;;
3101;SDS011;1561;42.666;23.392;2023-12-07T03:20:03;41.40;;;26.33;;
3101;SDS011;1561;42.666;23.392;2023-12-07T03:22:32;41.10;;;26.80;;
3101;SDS011;1561;42.666;23.392;2023-12-07T03:24:59;45.90;;;24.57;;
3101;SDS011;1561;42.666;23.392;2023-12-07T03:27:27;38.00;;;23.70;;
3101;SDS011;1561;42.666;23.392;2023-12-07T03:29:54;39.50;;;23.67;;
3101;SDS011;1561;42.666;23.392;2023-12-07T03:32:21;37.43;;;23.77;;
3101;SDS011;1561;42.666;23.392;2023-12-07T03:34:50;38.60;;;22.60;;
3101;SDS011;1561;42.666;23.392;2023-12-07T03:37:21;34.10;;;21.87;;
3101;SDS011;1561;42.666;23.392;2023-12-07T03:39:48;33.70;;;21.63;;
3101;SDS011;1561;42.666;23.392;2023-12-07T03:42:15;35.10;;;20.07;;
3101;SDS011;1561;42.666;23.392;2023-12-07T03:44:43;36.17;;;21.87;;
3101;SDS011;1561;42.666;23.392;2023-12-07T03:47:11;30.43;;;19.60;;
3101;SDS011;1561;42.666;23.392;2023-12-07T03:49:38;34.80;;;20.60;;
3101;SDS011;1561;42.666;23.392;2023-12-07T03:52:07;28.77;;;18.60;;
3101;SDS011;1561;42.666;23.392;2023-12-07T03:54:35;31.07;;;17.73;;
3101;SDS011;1561;42.666;23.392;2023-12-07T03:57:03;31.77;;;19.10;;
3101;SDS011;1561;42.666;23.392;2023-12-07T03:59:31;32.17;;;18.70;;
3101;SDS011;1561;42.666;23.392;2023-12-07T04:01:58;27.27;;;17.40;;
3101;SDS011;1561;42.666;23.392;2023-12-07T04:04:25;28.10;;;17.60;;
3101;SDS011;1561;42.666;23.392;2023-12-07T04:06:53;27.63;;;17.70;;
3101;SDS011;1561;42.666;23.392;2023-12-07T04:09:22;29.87;;;17.50;;
3101;SDS011;1561;42.666;23.392;2023-12-07T04:12:05;27.07;;;17.90;;
3101;SDS011;1561;42.666;23.392;2023-12-07T04:14:33;32.50;;;19.70;;
3101;SDS011;1561;42.666;23.392;2023-12-07T04:17:00;28.50;;;18.57;;
3101;SDS011;1561;42.666;23.392;2023-12-07T04:19:29;26.60;;;18.83;;
3101;SDS011;1561;42.666;23.392;2023-12-07T04:21:57;32.33;;;19.77;;
3101;SDS011;1561;42.666;23.392;2023-12-07T04:24:24;30.97;;;19.57;;
3101;SDS011;1561;42.666;23.392;2023-12-07T04:26:53;34.07;;;19.30;;
3101;SDS011;1561;42.666;23.392;2023-12-07T04:29:25;29.40;;;19.00;;
3101;SDS011;1561;42.666;23.392;2023-12-07T04:31:51;30.23;;;19.10;;
3101;SDS011;1561;42.666;23.392;2023-12-07T04:34:19;28.20;;;18.37;;
3101;SDS011;1561;42.666;23.392;2023-12-07T04:36:46;26.47;;;17.53;;
3101;SDS011;1561;42.666;23.392;2023-12-07T04:39:13;25.83;;;18.07;;
3101;SDS011;1561;42.666;23.392;2023-12-07T04:41:40;29.03;;;17.90;;
3101;SDS011;1561;42.666;23.392;2023-12-07T04:44:07;28.63;;;18.23;;
3101;SDS011;1561;42.666;23.392;2023-12-07T04:46:43;31.60;;;19.20;;
3101;SDS011;1561;42.666;23.392;2023-12-07T04:49:15;29.97;;;17.87;;
3101;SDS011;1561;42.666;23.392;2023-12-07T04:51:43;30.03;;;19.20;;
3101;SDS011;1561;42.666;23.392;2023-12-07T04:54:12;30.40;;;19.23;;
3101;SDS011;1561;42.666;23.392;2023-12-07T04:56:40;29.57;;;18.57;;
3101;SDS011;1561;42.666;23.392;2023-12-07T04:59:24;32.67;;;19.57;;
3101;SDS011;1561;42.666;23.392;2023-12-07T05:01:53;32.03;;;19.50;;
3101;SDS011;1561;42.666;23.392;2023-12-07T05:04:21;33.53;;;19.20;;
3101;SDS011;1561;42.666;23.392;2023-12-07T05:06:47;32.53;;;20.40;;
3101;SDS011;1561;42.666;23.392;2023-12-07T05:09:16;31.50;;;20.00;;
3101;SDS011;1561;42.666;23.392;2023-12-07T05:11:44;28.87;;;19.87;;
3101;SDS011;1561;42.666;23.392;2023-12-07T05:14:13;39.50;;;20.10;;
3101;SDS011;1561;42.666;23.392;2023-12-07T05:16:40;33.13;;;21.53;;
3101;SDS011;1561;42.666;23.392;2023-12-07T05:19:08;35.07;;;21.97;;
3101;SDS011;1561;42.666;23.392;2023-12-07T05:21:36;35.17;;;20.63;;
3101;SDS011;1561;42.666;23.392;2023-12-07T05:24:07;38.57;;;21.00;;
3101;SDS011;1561;42.666;23.392;2023-12-07T05:26:36;32.50;;;20.60;;
3101;SDS011;1561;42.666;23.392;2023-12-07T05:29:03;32.53;;;20.30;;
3101;SDS011;1561;42.666;23.392;2023-12-07T05:31:47;32.57;;;20.37;;
3101;SDS011;1561;42.666;23.392;2023-12-07T05:34:27;34.73;;;20.47;;
3101;SDS011;1561;42.666;23.392;2023-12-07T05:37:01;30.60;;;19.17;;
3101;SDS011;1561;42.666;23.392;2023-12-07T05:39:29;30.70;;;18.60;;
3101;SDS011;1561;42.666;23.392;2023-12-07T05:42:08;35.80;;;21.47;;
3101;SDS011;1561;42.666;23.392;2023-12-07T05:44:42;31.93;;;19.73;;
3101;SDS011;1561;42.666;23.392;2023-12-07T05:47:09;33.13;;;20.63;;
3101;SDS011;1561;42.666;23.392;2023-12-07T05:49:53;32.57;;;19.80;;
3101;SDS011;1561;42.666;23.392;2023-12-07T05:52:24;33.63;;;21.10;;
3101;SDS011;1561;42.666;23.392;2023-12-07T05:54:54;32.87;;;19.50;;
3101;SDS011;1561;42.666;23.392;2023-12-07T05:57:39;30.70;;;19.87;;
3101;SDS011;1561;42.666;23.392;2023-12-07T06:00:09;30.70;;;20.67;;
3101;SDS011;1561;42.666;23.392;2023-12-07T06:02:39;34.90;;;20.10;;
3101;SDS011;1561;42.666;23.392;2023-12-07T06:05:26;29.30;;;18.80;;
3101;SDS011;1561;42.666;23.392;2023-12-07T06:07:56;32.00;;;18.10;;
3101;SDS011;1561;42.666;23.392;2023-12-07T06:10:31;29.43;;;18.90;;
3101;SDS011;1561;42.666;23.392;2023-12-07T06:13:00;30.33;;;19.47;;
3101;SDS011;1561;42.666;23.392;2023-12-07T06:15:44;28.03;;;18.00;;
3101;SDS011;1561;42.666;23.392;2023-12-07T06:18:17;26.50;;;17.67;;
3101;SDS011;1561;42.666;23.392;2023-12-07T06:20:45;30.67;;;19.00;;
3101;SDS011;1561;42.666;23.392;2023-12-07T06:23:13;30.73;;;18.20;;
3101;SDS011;1561;42.666;23.392;2023-12-07T06:25:39;27.27;;;18.60;;
3101;SDS011;1561;42.666;23.392;2023-12-07T06:28:08;29.47;;;18.17;;
3101;SDS011;1561;42.666;23.392;2023-12-07T06:30:35;32.03;;;17.37;;
3101;SDS011;1561;42.666;23.392;2023-12-07T06:33:04;33.93;;;19.83;;
3101;SDS011;1561;42.666;23.392;2023-12-07T06:35:49;27.77;;;17.90;;
3101;SDS011;1561;42.666;23.392;2023-12-07T06:38:20;25.33;;;16.30;;
3101;SDS011;1561;42.666;23.392;2023-12-07T06:40:49;25.70;;;16.57;;
3101;SDS011;1561;42.666;23.392;2023-12-07T06:43:16;25.97;;;16.73;;
3101;SDS011;1561;42.666;23.392;2023-12-07T06:45:46;26.23;;;17.17;;
3101;SDS011;1561;42.666;23.392;2023-12-07T06:48:21;28.03;;;17.03;;
3101;SDS011;1561;42.666;23.392;2023-12-07T06:53:38;29.80;;;15.87;;
3101;SDS011;1561;42.666;23.392;2023-12-07T06:56:07;22.00;;;15.10;;
3101;SDS011;1561;42.666;23.392;2023-12-07T06:58:36;22.60;;;16.07;;
3101;SDS011;1561;42.666;23.392;2023-12-07T07:01:13;26.60;;;16.40;;
3101;SDS011;1561;42.666;23.392;2023-12-07T07:03:40;27.87;;;17.23;;
3101;SDS011;1561;42.666;23.392;2023-12-07T07:06:08;27.70;;;16.77;;
3101;SDS011;1561;42.666;23.392;2023-12-07T07:08:35;29.33;;;17.37;;
3101;SDS011;1561;42.666;23.392;2023-12-07T07:11:09;29.73;;;18.97;;
3101;SDS011;1561;42.666;23.392;2023-12-07T07:13:37;32.63;;;20.67;;
3101;SDS011;1561;42.666;23.392;2023-12-07T07:16:07;29.93;;;19.57;;
3101;SDS011;1561;42.666;23.392;2023-12-07T07:18:35;28.10;;;18.30;;
3101;SDS011;1561;42.666;23.392;2023-12-07T07:21:02;30.57;;;19.27;;
3101;SDS011;1561;42.666;23.392;2023-12-07T07:23:33;26.67;;;18.07;;
3101;SDS011;1561;42.666;23.392;2023-12-07T07:26:01;28.20;;;17.80;;
3101;SDS011;1561;42.666;23.392;2023-12-07T07:28:31;25.90;;;15.03;;
3101;SDS011;1561;42.666;23.392;2023-12-07T07:30:58;19.77;;;14.17;;
3101;SDS011;1561;42.666;23.392;2023-12-07T07:33:28;18.00;;;12.60;;
3101;SDS011;1561;42.666;23.392;2023-12-07T07:35:56;16.83;;;11.47;;
3101;SDS011;1561;42.666;23.392;2023-12-07T07:38:23;17.37;;;10.93;;
3101;SDS011;1561;42.666;23.392;2023-12-07T07:40:50;19.97;;;11.60;;
3101;SDS011;1561;42.666;23.392;2023-12-07T07:43:18;19.13;;;11.63;;
3101;SDS011;1561;42.666;23.392;2023-12-07T07:46:05;19.90;;;12.27;;
3101;SDS011;1561;42.666;23.392;2023-12-07T07:48:32;18.60;;;13.40;;
3101;SDS011;1561;42.666;23.392;2023-12-07T07:51:06;19.03;;;12.77;;
3101;SDS011;1561;42.666;23.392;2023-12-07T07:53:35;22.17;;;14.30;;
3101;SDS011;1561;42.666;23.392;2023-12-07T07:56:02;21.03;;;14.73;;
3101;SDS011;1561;42.666;23.392;2023-12-07T07:58:34;18.77;;;12.40;;
3101;SDS011;1561;42.666;23.392;2023-12-07T08:01:06;17.30;;;10.83;;
3101;SDS011;1561;42.666;23.392;2023-12-07T08:03:40;18.03;;;12.07;;
3101;SDS011;1561;42.666;23.392;2023-12-07T08:06:15;14.50;;;9.40;;
3101;SDS011;1561;42.666;23.392;2023-12-07T08:08:48;15.50;;;10.43;;
3101;SDS011;1561;42.666;23.392;2023-12-07T08:11:19;18.13;;;12.53;;
3101;SDS011;1561;42.666;23.392;2023-12-07T08:13:56;17.77;;;12.50;;
3101;SDS011;1561;42.666;23.392;2023-12-07T08:16:25;26.77;;;15.70;;
3101;SDS011;1561;42.666;23.392;2023-12-07T08:18:59;15.67;;;11.10;;
3101;SDS011;1561;42.666;23.392;2023-12-07T08:21:35;18.10;;;11.03;;
3101;SDS011;1561;42.666;23.392;2023-12-07T08:24:10;14.57;;;10.40;;
3101;SDS011;1561;42.666;23.392;2023-12-07T08:26:40;17.20;;;9.43;;
3101;SDS011;1561;42.666;23.392;2023-12-07T08:29:17;16.33;;;8.50;;
3101;SDS011;1561;42.666;23.392;2023-12-07T08:31:47;13.50;;;8.73;;
3101;SDS011;1561;42.666;23.392;2023-12-07T08:34:21;14.77;;;8.97;;
3101;SDS011;1561;42.666;23.392;2023-12-07T08:36:56;14.70;;;8.20;;
3101;SDS011;1561;42.666;23.392;2023-12-07T08:39:32;13.13;;;9.17;;
3101;SDS011;1561;42.666;23.392;2023-12-07T08:42:28;11.77;;;8.20;;
3101;SDS011;1561;42.666;23.392;2023-12-07T08:44:58;10.20;;;7.70;;
3101;SDS011;1561;42.666;23.392;2023-12-07T08:47:33;9.47;;;7.80;;
3101;SDS011;1561;42.666;23.392;2023-12-07T08:50:03;13.37;;;7.33;;
3101;SDS011;1561;42.666;23.392;2023-12-07T08:52:35;10.97;;;7.90;;
3101;SDS011;1561;42.666;23.392;2023-12-07T08:55:06;8.70;;;6.70;;
3101;SDS011;1561;42.666;23.392;2023-12-07T08:57:37;8.40;;;7.03;;
3101;SDS011;1561;42.666;23.392;2023-12-07T09:00:05;8.83;;;6.20;;
3101;SDS011;1561;42.666;23.392;2023-12-07T09:02:52;10.47;;;7.10;;
3101;SDS011;1561;42.666;23.392;2023-12-07T09:05:35;8.70;;;6.27;;
3101;SDS011;1561;42.666;23.392;2023-12-07T09:08:06;5.80;;;4.90;;
3101;SDS011;1561;42.666;23.392;2023-12-07T09:10:35;18.60;;;5.70;;
3101;SDS011;1561;42.666;23.392;2023-12-07T09:13:09;7.23;;;6.13;;
3101;SDS011;1561;42.666;23.392;2023-12-07T09:15:36;6.50;;;5.20;;
3101;SDS011;1561;42.666;23.392;2023-12-07T09:18:05;6.20;;;4.80;;
3101;SDS011;1561;42.666;23.392;2023-12-07T09:20:32;7.10;;;5.77;;
3101;SDS011;1561;42.666;23.392;2023-12-07T09:23:00;6.40;;;5.03;;
3101;SDS011;1561;42.666;23.392;2023-12-07T09:25:28;8.47;;;5.50;;
3101;SDS011;1561;42.666;23.392;2023-12-07T09:27:58;7.80;;;5.23;;
3101;SDS011;1561;42.666;23.392;2023-12-07T09:30:28;5.80;;;5.20;;
3101;SDS011;1561;42.666;23.392;2023-12-07T09:33:00;6.03;;;5.27;;
3101;SDS011;1561;42.666;23.392;2023-12-07T09:35:44;9.50;;;6.17;;
3101;SDS011;1561;42.666;23.392;2023-12-07T09:38:11;6.77;;;4.50;;
3101;SDS011;1561;42.666;23.392;2023-12-07T09:40:39;5.53;;;4.77;;
3101;SDS011;1561;42.666;23.392;2023-12-07T09:43:09;4.60;;;3.77;;
3101;SDS011;1561;42.666;23.392;2023-12-07T09:45:37;5.00;;;4.43;;
3101;SDS011;1561;42.666;23.392;2023-12-07T09:48:05;5.83;;;4.50;;
3101;SDS011;1561;42.666;23.392;2023-12-07T09:50:35;5.17;;;4.67;;
3101;SDS011;1561;42.666;23.392;2023-12-07T09:53:04;4.13;;;3.73;;
3101;SDS011;1561;42.666;23.392;2023-12-07T09:55:33;5.37;;;4.43;;
3101;SDS011;1561;42.666;23.392;2023-12-07T09:58:08;4.33;;;3.90;;
3101;SDS011;1561;42.666;23.392;2023-12-07T10:00:41;4.47;;;4.07;;
3101;SDS011;1561;42.666;23.392;2023-12-07T10:03:21;4.90;;;4.50;;
3101;SDS011;1561;42.666;23.392;2023-12-07T10:06:06;5.67;;;5.07;;
3101;SDS011;1561;42.666;23.392;2023-12-07T10:08:37;5.60;;;4.80;;
3101;SDS011;1561;42.666;23.392;2023-12-07T10:11:15;5.60;;;4.40;;
3101;SDS011;1561;42.666;23.392;2023-12-07T10:13:44;6.50;;;5.10;;
3101;SDS011;1561;42.666;23.392;2023-12-07T10:16:11;5.37;;;4.40;;
3101;SDS011;1561;42.666;23.392;2023-12-07T10:18:45;4.73;;;4.00;;
3101;SDS011;1561;42.666;23.392;2023-12-07T10:21:15;6.87;;;4.93;;
3101;SDS011;1561;42.666;23.392;2023-12-07T10:23:45;5.60;;;4.67;;
3101;SDS011;1561;42.666;23.392;2023-12-07T10:26:13;5.27;;;4.33;;
3101;SDS011;1561;42.666;23.392;2023-12-07T10:28:42;3.97;;;3.57;;
3101;SDS011;1561;42.666;23.392;2023-12-07T10:31:19;5.50;;;3.80;;
3101;SDS011;1561;42.666;23.392;2023-12-07T10:33:47;4.00;;;3.70;;
3101;SDS011;1561;42.666;23.392;2023-12-07T10:36:15;4.83;;;4.40;;
3101;SDS011;1561;42.666;23.392;2023-12-07T10:38:45;4.40;;;4.00;;
3101;SDS011;1561;42.666;23.392;2023-12-07T10:41:16;4.70;;;4.30;;
3101;SDS011;1561;42.666;23.392;2023-12-07T10:43:48;5.53;;;4.00;;
3101;SDS011;1561;42.666;23.392;2023-12-07T10:46:15;4.00;;;3.70;;
3101;SDS011;1561;42.666;23.392;2023-12-07T10:48:45;7.83;;;5.13;;
3101;SDS011;1561;42.666;23.392;2023-12-07T10:51:17;4.33;;;3.87;;
3101;SDS011;1561;42.666;23.392;2023-12-07T10:53:49;4.73;;;4.27;;
3101;SDS011;1561;42.666;23.392;2023-12-07T10:56:20;5.00;;;4.50;;
3101;SDS011;1561;42.666;23.392;2023-12-07T10:58:54;5.40;;;4.50;;
3101;SDS011;1561;42.666;23.392;2023-12-07T11:01:21;6.93;;;5.23;;
3101;SDS011;1561;42.666;23.392;2023-12-07T11:03:50;6.30;;;5.40;;
3101;SDS011;1561;42.666;23.392;2023-12-07T11:06:22;5.67;;;3.97;;
3101;SDS011;1561;42.666;23.392;2023-12-07T11:08:52;5.20;;;4.70;;
3101;SDS011;1561;42.666;23.392;2023-12-07T11:11:24;3.53;;;3.23;;
3101;SDS011;1561;42.666;23.392;2023-12-07T11:13:58;4.20;;;3.90;;
3101;SDS011;1561;42.666;23.392;2023-12-07T11:16:36;3.90;;;3.50;;
3101;SDS011;1561;42.666;23.392;2023-12-07T11:19:05;4.30;;;3.30;;
3101;SDS011;1561;42.666;23.392;2023-12-07T11:21:53;2.90;;;2.70;;
3101;SDS011;1561;42.666;23.392;2023-12-07T11:24:24;3.67;;;3.20;;
3101;SDS011;1561;42.666;23.392;2023-12-07T11:26:51;4.47;;;4.07;;
3101;SDS011;1561;42.666;23.392;2023-12-07T11:29:19;3.73;;;3.40;;
3101;SDS011;1561;42.666;23.392;2023-12-07T11:31:50;4.80;;;3.80;;
3101;SDS011;1561;42.666;23.392;2023-12-07T11:34:30;4.30;;;3.90;;
3101;SDS011;1561;42.666;23.392;2023-12-07T11:37:03;3.50;;;3.13;;
3101;SDS011;1561;42.666;23.392;2023-12-07T11:39:39;5.80;;;3.80;;
3101;SDS011;1561;42.666;23.392;2023-12-07T11:42:10;5.47;;;3.47;;
3101;SDS011;1561;42.666;23.392;2023-12-07T11:44:37;3.17;;;2.87;;
3101;SDS011;1561;42.666;23.392;2023-12-07T11:47:07;7.80;;;3.57;;
3101;SDS011;1561;42.666;23.392;2023-12-07T11:49:35;4.73;;;4.20;;
3101;SDS011;1561;42.666;23.392;2023-12-07T11:52:14;4.80;;;3.90;;
3101;SDS011;1561;42.666;23.392;2023-12-07T11:54:46;5.57;;;4.53;;
3101;SDS011;1561;42.666;23.392;2023-12-07T11:57:13;4.67;;;4.27;;
3101;SDS011;1561;42.666;23.392;2023-12-07T11:59:49;6.07;;;4.30;;
3101;SDS011;1561;42.666;23.392;2023-12-07T12:02:17;5.53;;;4.70;;
3101;SDS011;1561;42.666;23.392;2023-12-07T12:04:44;4.20;;;3.80;;
3101;SDS011;1561;42.666;23.392;2023-12-07T12:07:26;4.40;;;4.00;;
3101;SDS011;1561;42.666;23.392;2023-12-07T12:09:55;3.80;;;3.40;;
3101;SDS011;1561;42.666;23.392;2023-12-07T12:12:23;8.83;;;4.47;;
3101;SDS011;1561;42.666;23.392;2023-12-07T12:14:53;7.97;;;4.93;;
3101;SDS011;1561;42.666;23.392;2023-12-07T12:17:20;9.73;;;4.37;;
3101;SDS011;1561;42.666;23.392;2023-12-07T12:19:49;5.90;;;3.87;;
3101;SDS011;1561;42.666;23.392;2023-12-07T12:22:24;3.70;;;3.30;;
3101;SDS011;1561;42.666;23.392;2023-12-07T12:24:51;6.53;;;4.13;;
3101;SDS011;1561;42.666;23.392;2023-12-07T12:27:23;4.20;;;3.30;;
3101;SDS011;1561;42.666;23.392;2023-12-07T12:29:50;5.20;;;4.33;;
3101;SDS011;1561;42.666;23.392;2023-12-07T12:32:16;4.70;;;4.30;;
3101;SDS011;1561;42.666;23.392;2023-12-07T12:34:45;4.87;;;4.40;;
3101;SDS011;1561;42.666;23.392;2023-12-07T12:37:12;3.50;;;3.20;;
3101;SDS011;1561;42.666;23.392;2023-12-07T12:39:53;4.40;;;4.00;;
3101;SDS011;1561;42.666;23.392;2023-12-07T12:42:23;4.17;;;3.77;;
3101;SDS011;1561;42.666;23.392;2023-12-07T12:44:50;4.77;;;4.03;;
3101;SDS011;1561;42.666;23.392;2023-12-07T12:47:26;7.57;;;5.00;;
3101;SDS011;1561;42.666;23.392;2023-12-07T12:49:56;5.50;;;3.90;;
3101;SDS011;1561;42.666;23.392;2023-12-07T12:52:30;6.13;;;5.50;;
3101;SDS011;1561;42.666;23.392;2023-12-07T12:54:58;7.33;;;5.67;;
3101;SDS011;1561;42.666;23.392;2023-12-07T13:00:15;7.53;;;5.30;;
3101;SDS011;1561;42.666;23.392;2023-12-07T13:02:43;7.03;;;5.43;;
3101;SDS011;1561;42.666;23.392;2023-12-07T13:05:33;4.70;;;4.20;;
3101;SDS011;1561;42.666;23.392;2023-12-07T13:08:11;7.93;;;5.10;;
3101;SDS011;1561;42.666;23.392;2023-12-07T13:25:12;6.23;;;5.37;;
3101;SDS011;1561;42.666;23.392;2023-12-07T13:27:55;6.30;;;5.60;;
3101;SDS011;1561;42.666;23.392;2023-12-07T13:30:34;5.40;;;4.83;;
3101;SDS011;1561;42.666;23.392;2023-12-07T13:33:07;7.70;;;5.50;;
3101;SDS011;1561;42.666;23.392;2023-12-07T13:35:35;5.90;;;5.00;;
3101;SDS011;1561;42.666;23.392;2023-12-07T13:38:03;8.57;;;5.73;;
3101;SDS011;1561;42.666;23.392;2023-12-07T13:40:33;7.63;;;5.50;;
3101;SDS011;1561;42.666;23.392;2023-12-07T13:43:02;9.70;;;5.47;;
3101;SDS011;1561;42.666;23.392;2023-12-07T13:45:34;7.10;;;5.87;;
3101;SDS011;1561;42.666;23.392;2023-12-07T13:48:04;6.50;;;5.80;;
3101;SDS011;1561;42.666;23.392;2023-12-07T13:50:33;7.33;;;6.00;;
3101;SDS011;1561;42.666;23.392;2023-12-07T13:53:16;6.90;;;5.33;;
3101;SDS011;1561;42.666;23.392;2023-12-07T13:55:46;8.23;;;6.60;;
3101;SDS011;1561;42.666;23.392;2023-12-07T13:58:21;9.70;;;6.37;;
3101;SDS011;1561;42.666;23.392;2023-12-07T14:00:49;5.90;;;5.10;;
3101;SDS011;1561;42.666;23.392;2023-12-07T14:03:17;7.50;;;4.50;;
3101;SDS011;1561;42.666;23.392;2023-12-07T14:05:44;8.97;;;5.03;;
3101;SDS011;1561;42.666;23.392;2023-12-07T14:08:14;7.23;;;6.10;;
3101;SDS011;1561;42.666;23.392;2023-12-07T14:10:41;7.80;;;5.77;;
3101;SDS011;1561;42.666;23.392;2023-12-07T14:13:25;8.27;;;6.83;;
3101;SDS011;1561;42.666;23.392;2023-12-07T14:16:14;9.23;;;7.70;;
3101;SDS011;1561;42.666;23.392;2023-12-07T14:21:28;7.43;;;5.90;;
3101;SDS011;1561;42.666;23.392;2023-12-07T14:24:03;8.50;;;6.40;;
3101;SDS011;1561;42.666;23.392;2023-12-07T14:26:53;8.60;;;7.07;;
3101;SDS011;1561;42.666;23.392;2023-12-07T14:29:24;8.33;;;5.53;;
3101;SDS011;1561;42.666;23.392;2023-12-07T14:31:54;8.53;;;7.60;;
3101;SDS011;1561;42.666;23.392;2023-12-07T14:34:24;11.17;;;6.80;;
3101;SDS011;1561;42.666;23.392;2023-12-07T14:36:53;9.57;;;7.03;;
3101;SDS011;1561;42.666;23.392;2023-12-07T14:39:20;8.90;;;6.93;;
3101;SDS011;1561;42.666;23.392;2023-12-07T14:41:48;9.70;;;7.93;;
3101;SDS011;1561;42.666;23.392;2023-12-07T14:44:21;9.17;;;7.13;;
3101;SDS011;1561;42.666;23.392;2023-12-07T14:46:53;13.17;;;9.53;;
3101;SDS011;1561;42.666;23.392;2023-12-07T14:49:20;13.53;;;9.37;;
3101;SDS011;1561;42.666;23.392;2023-12-07T14:51:47;12.83;;;9.37;;
3101;SDS011;1561;42.666;23.392;2023-12-07T14:54:24;12.73;;;9.50;;
3101;SDS011;1561;42.666;23.392;2023-12-07T14:56:52;10.30;;;8.10;;
3101;SDS011;1561;42.666;23.392;2023-12-07T14:59:21;10.67;;;7.67;;
3101;SDS011;1561;42.666;23.392;2023-12-07T15:01:51;13.70;;;9.90;;
3101;SDS011;1561;42.666;23.392;2023-12-07T15:04:17;11.97;;;9.57;;
3101;SDS011;1561;42.666;23.392;2023-12-07T15:06:46;12.00;;;10.23;;
3101;SDS011;1561;42.666;23.392;2023-12-07T15:09:13;14.70;;;10.00;;
3101;SDS011;1561;42.666;23.392;2023-12-07T15:11:41;16.57;;;11.53;;
3101;SDS011;1561;42.666;23.392;2023-12-07T15:14:08;14.50;;;9.67;;
3101;SDS011;1561;42.666;23.392;2023-12-07T15:16:41;15.27;;;9.73;;
3101;SDS011;1561;42.666;23.392;2023-12-07T15:19:10;14.70;;;10.67;;
3101;SDS011;1561;42.666;23.392;2023-12-07T15:21:37;16.43;;;11.73;;
3101;SDS011;1561;42.666;23.392;2023-12-07T15:24:07;14.70;;;10.80;;
3101;SDS011;1561;42.666;23.392;2023-12-07T15:26:41;15.43;;;10.47;;
3101;SDS011;1561;42.666;23.392;2023-12-07T15:29:12;13.83;;;10.23;;